Time;durP1;ratioP1;P1;durP2;ratioP2;P2;SDS_P1;SDS_P2;PMS_P1;PMS_P2;Temp;Humidity;BMP_temperature;BMP_pressure;BME280_temperature;BME280_humidity;BME280_pressure;Samples;Min_cycle;Max_cycle;Signal;HPM_P1;HPM_P2
2023/06/24 00:02:12;;;;;;;7.30;6.27;;;16.40;99.90;;;;;;4983225;28;20183;-40
2023/06/24 00:04:39;;;;;;;8.20;6.60;;;16.30;99.90;;;;;;5006793;28;20179;-43
2023/06/24 00:07:05;;;;;;;8.23;7.40;;;16.20;99.90;;;;;;4988695;28;20217;-42
2023/06/24 00:09:31;;;;;;;7.00;6.30;;;16.20;99.90;;;;;;4985597;28;20183;-43
2023/06/24 00:12:01;;;;;;;7.13;6.43;;;16.20;99.90;;;;;;4981500;28;20184;-43
2023/06/24 00:14:27;;;;;;;8.70;6.97;;;16.10;99.90;;;;;;4997666;28;20188;-38
2023/06/24 00:16:54;;;;;;;7.63;6.73;;;16.10;99.90;;;;;;4999089;28;20207;-42
2023/06/24 00:19:31;;;;;;;8.50;7.60;;;16.10;99.90;;;;;;4999432;28;20269;-38
2023/06/24 00:21:58;;;;;;;6.97;6.27;;;16.10;99.90;;;;;;5021618;28;20175;-43
2023/06/24 00:24:25;;;;;;;8.00;7.20;;;16.00;99.90;;;;;;5000686;28;20183;-43
2023/06/24 00:26:54;;;;;;;7.63;6.70;;;16.00;99.90;;;;;;4984618;28;20206;-43
2023/06/24 00:29:20;;;;;;;7.83;6.97;;;15.90;99.90;;;;;;4999231;28;20175;-42
2023/06/24 00:31:46;;;;;;;7.33;6.53;;;15.90;99.90;;;;;;4996807;28;20253;-42
2023/06/24 00:34:12;;;;;;;7.70;6.97;;;15.80;99.90;;;;;;5002096;28;20188;-43
2023/06/24 00:36:38;;;;;;;8.70;6.50;;;15.80;99.90;;;;;;4983732;28;20199;-42
2023/06/24 00:39:05;;;;;;;7.67;6.97;;;15.80;99.90;;;;;;4996732;28;20249;-43
2023/06/24 00:41:36;;;;;;;8.47;7.67;;;15.80;99.90;;;;;;4990526;28;20225;-43
2023/06/24 00:44:02;;;;;;;9.10;6.73;;;15.80;99.90;;;;;;4997327;28;20187;-43
2023/06/24 00:46:31;;;;;;;7.17;6.37;;;15.80;99.90;;;;;;5008476;28;20179;-42
2023/06/24 00:48:58;;;;;;;7.50;6.10;;;15.80;99.90;;;;;;4985299;28;20306;-41
2023/06/24 00:51:30;;;;;;;7.20;6.50;;;15.80;99.90;;;;;;4995747;28;20187;-42
2023/06/24 00:53:57;;;;;;;7.57;6.77;;;15.70;99.90;;;;;;4996508;28;20198;-43
2023/06/24 00:56:45;;;;;;;6.93;6.33;;;15.70;99.90;;;;;;4998571;28;20186;-43
2023/06/24 00:59:16;;;;;;;7.70;7.00;;;15.70;99.90;;;;;;5010451;28;20196;-43
2023/06/24 01:01:44;;;;;;;9.13;7.93;;;15.60;99.90;;;;;;4995815;28;20172;-43
2023/06/24 01:04:10;;;;;;;9.10;7.43;;;15.60;99.90;;;;;;5000336;28;20251;-43
2023/06/24 01:06:36;;;;;;;7.93;7.13;;;15.50;99.90;;;;;;4998183;28;20297;-43
2023/06/24 01:09:04;;;;;;;8.13;7.07;;;15.50;99.90;;;;;;4982571;28;20210;-41
2023/06/24 01:11:31;;;;;;;7.57;6.80;;;15.40;99.90;;;;;;4995716;28;20179;-43
2023/06/24 01:13:57;;;;;;;7.67;6.87;;;15.40;99.90;;;;;;4996887;28;20250;-42
2023/06/24 01:16:49;;;;;;;8.27;7.13;;;15.40;99.90;;;;;;4991748;28;20187;-43
2023/06/24 01:19:37;;;;;;;8.90;7.47;;;15.50;99.90;;;;;;4994562;28;20238;-42
2023/06/24 01:22:22;;;;;;;9.00;7.57;;;15.40;99.90;;;;;;5001556;28;20179;-43
2023/06/24 01:25:03;;;;;;;8.63;7.83;;;15.40;99.90;;;;;;4994930;28;20710;-41
2023/06/24 01:27:54;;;;;;;9.10;7.93;;;15.40;99.90;;;;;;5004206;28;20393;-42
2023/06/24 01:30:58;;;;;;;9.03;8.13;;;15.40;99.90;;;;;;4995418;28;20188;-41
2023/06/24 01:33:37;;;;;;;9.33;8.23;;;15.40;99.90;;;;;;5018208;28;20184;-40
2023/06/24 01:36:07;;;;;;;11.00;8.70;;;15.40;99.90;;;;;;4993016;28;20187;-43
2023/06/24 01:38:51;;;;;;;9.70;7.87;;;15.40;99.90;;;;;;4987995;28;20253;-43
2023/06/24 01:41:22;;;;;;;8.30;7.50;;;15.40;99.90;;;;;;5012404;28;20183;-43
2023/06/24 01:43:52;;;;;;;9.93;7.73;;;15.30;99.90;;;;;;4994526;28;20212;-43
2023/06/24 01:46:21;;;;;;;8.40;7.57;;;15.10;99.90;;;;;;5010890;28;20180;-41
2023/06/24 01:48:51;;;;;;;8.93;7.37;;;15.10;99.90;;;;;;5006408;28;20188;-43
2023/06/24 01:51:22;;;;;;;8.43;7.53;;;15.00;99.90;;;;;;4998536;28;20310;-42
2023/06/24 01:54:02;;;;;;;8.10;7.30;;;15.00;99.90;;;;;;4994126;28;20198;-43
2023/06/24 01:56:30;;;;;;;8.77;7.73;;;15.00;99.90;;;;;;4990340;28;20175;-40
2023/06/24 01:59:00;;;;;;;9.00;7.67;;;15.00;99.90;;;;;;4998156;28;20215;-43
2023/06/24 02:01:27;;;;;;;9.27;7.77;;;15.00;99.90;;;;;;5018423;28;20172;-41
2023/06/24 02:03:56;;;;;;;10.73;8.30;;;15.00;99.90;;;;;;4991773;28;20238;-41
2023/06/24 02:06:23;;;;;;;8.17;7.37;;;14.90;99.90;;;;;;4994567;28;20656;-43
2023/06/24 02:08:51;;;;;;;8.27;7.47;;;14.90;99.90;;;;;;5004982;28;20215;-42
2023/06/24 02:11:19;;;;;;;9.23;7.63;;;14.90;99.90;;;;;;5002101;28;20190;-43
2023/06/24 02:13:45;;;;;;;9.17;7.37;;;14.80;99.90;;;;;;4995193;28;20226;-41
2023/06/24 02:16:17;;;;;;;9.80;6.97;;;14.80;99.90;;;;;;5011317;28;20266;-43
2023/06/24 02:18:43;;;;;;;10.33;8.00;;;14.80;99.90;;;;;;4994402;28;20245;-40
2023/06/24 02:21:10;;;;;;;8.27;7.30;;;14.70;99.90;;;;;;4983042;28;20211;-41
2023/06/24 02:23:37;;;;;;;8.33;7.40;;;14.70;99.90;;;;;;5008408;28;20184;-40
2023/06/24 02:26:06;;;;;;;9.80;7.73;;;14.70;99.90;;;;;;4999668;28;20180;-43
2023/06/24 02:28:33;;;;;;;8.37;7.33;;;14.80;99.90;;;;;;4994389;28;20192;-41
2023/06/24 02:31:00;;;;;;;9.00;7.57;;;14.80;99.90;;;;;;4992554;28;20339;-43
2023/06/24 02:33:26;;;;;;;8.43;7.63;;;14.70;99.90;;;;;;5006982;28;20226;-43
2023/06/24 02:35:52;;;;;;;8.60;7.37;;;14.70;99.90;;;;;;5026166;28;20631;-43
2023/06/24 02:38:18;;;;;;;8.60;7.43;;;14.70;99.90;;;;;;4994433;28;20213;-42
2023/06/24 02:40:47;;;;;;;8.17;7.37;;;14.70;99.90;;;;;;4991718;28;20219;-39
2023/06/24 02:43:13;;;;;;;8.47;7.30;;;14.70;99.90;;;;;;4992649;28;20188;-41
2023/06/24 02:45:41;;;;;;;8.13;7.30;;;14.70;99.90;;;;;;5010925;28;20212;-43
2023/06/24 02:48:10;;;;;;;9.40;7.30;;;14.70;99.90;;;;;;4993751;28;20212;-43
2023/06/24 02:50:37;;;;;;;8.67;7.77;;;14.70;99.90;;;;;;4999061;28;20192;-43
2023/06/24 02:53:04;;;;;;;9.33;6.90;;;14.60;99.90;;;;;;4993909;28;20210;-43
2023/06/24 02:55:35;;;;;;;8.73;7.23;;;14.60;99.90;;;;;;4995040;28;20192;-43
2023/06/24 02:58:07;;;;;;;10.90;7.37;;;14.50;99.90;;;;;;4991445;28;20204;-43
2023/06/24 03:01:03;;;;;;;8.33;7.23;;;14.50;99.90;;;;;;5008349;28;20183;-39
2023/06/24 03:03:36;;;;;;;9.83;7.70;;;14.50;99.90;;;;;;5002192;28;20192;-43
2023/06/24 03:06:06;;;;;;;8.00;7.20;;;14.40;99.90;;;;;;4992200;28;20176;-43
2023/06/24 03:08:37;;;;;;;7.73;6.43;;;14.40;99.90;;;;;;4984636;28;20294;-42
2023/06/24 03:11:03;;;;;;;9.17;6.17;;;14.40;99.90;;;;;;5007256;28;20180;-43
2023/06/24 03:13:30;;;;;;;7.73;6.93;;;14.40;99.90;;;;;;4991301;28;20183;-43
2023/06/24 03:16:19;;;;;;;9.90;7.27;;;14.40;99.90;;;;;;4999267;28;20184;-40
2023/06/24 03:18:59;;;;;;;10.27;7.43;;;14.30;99.90;;;;;;5006117;28;20207;-43
2023/06/24 03:21:28;;;;;;;10.53;7.73;;;14.30;99.90;;;;;;4998845;28;20183;-43
2023/06/24 03:23:58;;;;;;;8.33;7.50;;;14.30;99.90;;;;;;4984747;28;20198;-40
2023/06/24 03:26:35;;;;;;;10.13;7.37;;;14.20;99.90;;;;;;5007800;28;20229;-42
2023/06/24 03:29:01;;;;;;;14.93;8.23;;;14.10;99.90;;;;;;4988234;28;20179;-42
2023/06/24 03:31:28;;;;;;;13.40;7.73;;;14.10;99.90;;;;;;4987547;28;20180;-41
2023/06/24 03:33:54;;;;;;;12.00;6.70;;;14.20;99.90;;;;;;4999935;28;20194;-43
2023/06/24 03:36:20;;;;;;;10.57;7.60;;;14.10;99.90;;;;;;4984254;28;20180;-43
2023/06/24 03:38:46;;;;;;;10.27;6.83;;;14.10;99.90;;;;;;4991286;28;20210;-39
2023/06/24 03:41:12;;;;;;;9.80;6.40;;;14.20;99.90;;;;;;4995559;28;20179;-41
2023/06/24 03:43:41;;;;;;;9.40;6.47;;;14.20;99.90;;;;;;4989281;28;20680;-40
2023/06/24 03:46:11;;;;;;;8.30;6.43;;;14.30;99.90;;;;;;5007010;28;20202;-41
2023/06/24 03:48:38;;;;;;;8.93;6.63;;;14.40;99.90;;;;;;4999127;28;20210;-43
2023/06/24 03:51:05;;;;;;;7.97;6.20;;;14.50;99.90;;;;;;4995901;28;20184;-38
2023/06/24 03:53:32;;;;;;;10.97;5.97;;;14.50;99.90;;;;;;5001197;28;20322;-42
2023/06/24 03:55:59;;;;;;;9.80;6.47;;;14.60;99.90;;;;;;4982270;28;20187;-42
2023/06/24 03:58:26;;;;;;;8.37;6.93;;;14.50;99.90;;;;;;5003866;28;20202;-42
2023/06/24 04:00:53;;;;;;;9.73;7.17;;;14.60;99.90;;;;;;4991389;28;20191;-43
2023/06/24 04:03:19;;;;;;;11.40;7.00;;;14.60;99.90;;;;;;5004711;28;20184;-43
2023/06/24 04:05:45;;;;;;;7.60;6.40;;;14.60;99.90;;;;;;4992946;28;20184;-43
2023/06/24 04:08:11;;;;;;;8.37;6.87;;;14.60;99.90;;;;;;4992046;28;20349;-43
2023/06/24 04:10:38;;;;;;;8.57;7.13;;;14.60;99.90;;;;;;4993652;28;20224;-42
2023/06/24 04:13:04;;;;;;;8.47;6.53;;;14.60;99.90;;;;;;4992726;28;20243;-42
2023/06/24 04:15:31;;;;;;;9.77;6.80;;;14.70;99.90;;;;;;4993105;28;20186;-41
2023/06/24 04:17:56;;;;;;;9.20;7.27;;;14.70;99.90;;;;;;4993536;28;20216;-39
2023/06/24 04:20:23;;;;;;;8.80;7.07;;;14.80;99.90;;;;;;4988132;28;20231;-40
2023/06/24 04:22:50;;;;;;;9.90;7.63;;;14.80;99.90;;;;;;4993006;28;20179;-43
2023/06/24 04:25:16;;;;;;;10.47;7.07;;;14.70;99.90;;;;;;4993074;28;20189;-43
2023/06/24 04:27:42;;;;;;;10.87;6.77;;;14.70;99.90;;;;;;4992385;28;20206;-43
2023/06/24 04:30:08;;;;;;;10.03;7.60;;;14.60;99.90;;;;;;5004728;28;20179;-43
2023/06/24 04:32:34;;;;;;;10.10;7.60;;;14.60;99.90;;;;;;4992941;28;20270;-43
2023/06/24 04:35:04;;;;;;;10.43;7.20;;;14.60;99.90;;;;;;4989964;28;20798;-43
2023/06/24 04:37:30;;;;;;;9.10;7.00;;;14.60;99.90;;;;;;4989937;28;20199;-43
2023/06/24 04:39:57;;;;;;;9.73;7.73;;;14.70;99.90;;;;;;4997775;28;20215;-42
2023/06/24 04:42:25;;;;;;;7.90;7.10;;;14.80;99.90;;;;;;4991022;28;20191;-43
2023/06/24 04:44:53;;;;;;;12.27;7.43;;;14.90;99.90;;;;;;4996369;28;20213;-43
2023/06/24 04:47:20;;;;;;;8.87;7.83;;;15.00;99.90;;;;;;5004656;28;20203;-43
2023/06/24 04:49:46;;;;;;;10.47;7.50;;;15.10;99.90;;;;;;5006947;28;20649;-43
2023/06/24 04:52:13;;;;;;;11.37;7.23;;;15.20;99.90;;;;;;4992622;28;20188;-43
2023/06/24 04:54:40;;;;;;;11.20;6.93;;;15.20;99.90;;;;;;4996098;28;20254;-41
2023/06/24 04:57:09;;;;;;;9.90;7.30;;;15.20;99.90;;;;;;5004702;28;20799;-43
2023/06/24 04:59:38;;;;;;;10.80;7.77;;;15.30;99.90;;;;;;4983061;28;20196;-43
2023/06/24 05:02:06;;;;;;;9.87;7.83;;;15.20;99.90;;;;;;5005495;28;20206;-43
2023/06/24 05:04:36;;;;;;;8.47;7.27;;;15.20;99.90;;;;;;5007024;28;20180;-43
2023/06/24 05:07:03;;;;;;;9.33;7.63;;;15.20;99.90;;;;;;4990461;28;20296;-42
2023/06/24 05:09:29;;;;;;;13.37;7.67;;;15.20;99.90;;;;;;4993978;28;20179;-43
2023/06/24 05:11:54;;;;;;;10.93;7.90;;;15.30;99.90;;;;;;4991324;28;20191;-43
2023/06/24 05:14:20;;;;;;;10.60;7.73;;;15.40;99.90;;;;;;5002365;28;20190;-39
2023/06/24 05:16:46;;;;;;;11.90;8.13;;;15.40;99.90;;;;;;4992542;28;20210;-44
2023/06/24 05:19:12;;;;;;;8.23;7.33;;;15.40;99.90;;;;;;4995038;28;20291;-43
2023/06/24 05:21:37;;;;;;;10.67;8.87;;;15.50;99.90;;;;;;4999493;28;20217;-43
2023/06/24 05:24:04;;;;;;;12.47;8.20;;;15.50;99.90;;;;;;4979917;28;20233;-42
2023/06/24 05:26:29;;;;;;;8.90;6.80;;;15.50;99.90;;;;;;4996478;28;20303;-43
2023/06/24 05:28:55;;;;;;;13.00;8.07;;;15.60;99.90;;;;;;4995950;28;20223;-43
2023/06/24 05:31:21;;;;;;;9.93;8.00;;;15.60;99.90;;;;;;4996367;28;20278;-43
2023/06/24 05:33:47;;;;;;;11.73;8.93;;;15.60;99.90;;;;;;4997229;28;20261;-43
2023/06/24 05:36:13;;;;;;;10.20;8.67;;;15.60;99.90;;;;;;4995687;28;20187;-40
2023/06/24 05:38:38;;;;;;;10.43;8.23;;;15.80;99.90;;;;;;5022555;28;20217;-43
2023/06/24 05:41:04;;;;;;;11.60;8.10;;;15.90;99.90;;;;;;4992127;28;20183;-39
2023/06/24 05:43:30;;;;;;;9.77;8.27;;;16.10;99.90;;;;;;4992698;28;20180;-43
2023/06/24 05:45:56;;;;;;;11.47;8.23;;;16.10;99.90;;;;;;5007720;28;20187;-42
2023/06/24 05:48:22;;;;;;;9.43;8.17;;;16.20;99.90;;;;;;4990818;28;20196;-43
2023/06/24 05:50:49;;;;;;;8.70;7.70;;;16.30;99.90;;;;;;4994792;28;20188;-43
2023/06/24 05:53:18;;;;;;;9.23;8.07;;;16.50;99.90;;;;;;4990098;28;20180;-41
2023/06/24 05:55:46;;;;;;;11.10;8.60;;;16.70;99.90;;;;;;5007241;28;20199;-41
2023/06/24 05:58:13;;;;;;;8.53;7.67;;;16.90;99.90;;;;;;4995738;28;20207;-43
2023/06/24 06:00:40;;;;;;;8.97;7.63;;;17.10;99.90;;;;;;4996448;28;20204;-43
2023/06/24 06:03:06;;;;;;;9.57;7.60;;;17.30;99.90;;;;;;4987601;28;20195;-43
2023/06/24 06:05:31;;;;;;;8.60;7.70;;;17.50;99.90;;;;;;4992398;28;20187;-41
2023/06/24 06:07:57;;;;;;;8.77;7.88;;;17.70;99.90;;;;;;5006386;28;20238;-41
2023/06/24 06:10:23;;;;;;;11.05;8.30;;;17.90;99.90;;;;;;4994895;28;20183;-43
2023/06/24 06:12:49;;;;;;;10.20;7.57;;;18.10;99.90;;;;;;4994470;28;20183;-43
2023/06/24 06:15:16;;;;;;;9.40;7.40;;;18.20;99.90;;;;;;4995585;28;20179;-41
2023/06/24 06:17:42;;;;;;;10.13;8.65;;;18.40;99.90;;;;;;5011005;28;20207;-40
2023/06/24 06:20:08;;;;;;;8.63;7.78;;;18.50;99.90;;;;;;4989326;28;20204;-43
2023/06/24 06:22:37;;;;;;;9.73;7.60;;;18.50;99.90;;;;;;4995024;28;20172;-43
2023/06/24 06:25:05;;;;;;;8.30;7.50;;;18.60;99.90;;;;;;4992195;28;20207;-43
2023/06/24 06:27:32;;;;;;;8.98;8.07;;;18.60;99.90;;;;;;5003531;28;20191;-39
2023/06/24 06:29:59;;;;;;;10.90;7.50;;;18.70;99.90;;;;;;4985629;28;20183;-43
2023/06/24 06:32:28;;;;;;;8.40;7.38;;;18.80;99.90;;;;;;5008279;28;20246;-43
2023/06/24 06:34:54;;;;;;;7.72;6.95;;;19.00;99.90;;;;;;4992859;28;20184;-43
2023/06/24 06:37:22;;;;;;;8.45;7.22;;;19.10;99.90;;;;;;5010207;28;20214;-43
2023/06/24 06:39:51;;;;;;;7.70;6.93;;;19.30;99.90;;;;;;4993301;28;20237;-44
2023/06/24 06:42:19;;;;;;;11.40;7.60;;;19.40;99.90;;;;;;4994649;28;20202;-44
2023/06/24 06:44:46;;;;;;;7.60;6.55;;;19.40;99.90;;;;;;5001205;28;20284;-33
2023/06/24 06:47:12;;;;;;;8.10;7.15;;;19.50;99.90;;;;;;5012313;28;20196;-38
2023/06/24 06:49:39;;;;;;;7.72;6.93;;;19.60;99.90;;;;;;5012073;28;20188;-38
2023/06/24 06:52:07;;;;;;;8.52;7.22;;;19.60;99.90;;;;;;4985307;28;20199;-34
2023/06/24 06:54:33;;;;;;;8.43;6.55;;;19.60;99.90;;;;;;5009386;28;20190;-38
2023/06/24 06:57:03;;;;;;;7.25;6.38;;;19.80;99.90;;;;;;4992146;28;20203;-33
2023/06/24 06:59:33;;;;;;;7.20;6.50;;;19.90;99.90;;;;;;5000368;28;20203;-38
2023/06/24 07:01:59;;;;;;;7.00;6.30;;;19.90;99.90;;;;;;5007122;28;20176;-36
2023/06/24 07:04:27;;;;;;;8.57;6.78;;;20.10;99.90;;;;;;5010945;28;20262;-38
2023/06/24 07:06:53;;;;;;;6.93;6.22;;;20.10;99.90;;;;;;4993307;28;20227;-39
2023/06/24 07:09:19;;;;;;;10.20;6.43;;;20.30;99.90;;;;;;4991991;28;20196;-40
2023/06/24 07:11:46;;;;;;;7.32;6.53;;;20.50;99.90;;;;;;5011187;28;20193;-38
2023/06/24 07:14:13;;;;;;;6.60;6.00;;;20.50;99.90;;;;;;5006869;28;20251;-35
2023/06/24 07:16:41;;;;;;;6.78;5.50;;;20.80;99.90;;;;;;4993836;28;20242;-38
2023/06/24 07:19:08;;;;;;;6.28;5.68;;;21.00;99.90;;;;;;4997114;28;20210;-35
2023/06/24 07:21:34;;;;;;;6.07;5.22;;;21.20;99.90;;;;;;4998257;28;20175;-39
2023/06/24 07:24:00;;;;;;;5.40;4.90;;;21.40;99.90;;;;;;4989487;28;20206;-36
2023/06/24 07:26:28;;;;;;;5.72;5.22;;;21.50;99.90;;;;;;5004878;28;20187;-39
2023/06/24 07:28:58;;;;;;;6.15;5.00;;;21.70;99.90;;;;;;5002553;28;20271;-36
2023/06/24 07:31:23;;;;;;;6.78;5.00;;;21.70;99.90;;;;;;5006816;28;20184;-38
2023/06/24 07:33:49;;;;;;;4.65;4.25;;;22.00;99.90;;;;;;4987864;28;20180;-38
2023/06/24 07:36:15;;;;;;;6.03;5.40;;;22.20;99.90;;;;;;5012961;28;20194;-37
2023/06/24 07:38:41;;;;;;;6.90;5.45;;;22.30;99.90;;;;;;4989592;28;20200;-35
2023/06/24 07:41:07;;;;;;;5.80;5.20;;;22.40;99.90;;;;;;5008796;28;20198;-37
2023/06/24 07:43:33;;;;;;;5.25;4.75;;;22.30;99.90;;;;;;4989747;28;20262;-36
2023/06/24 07:45:58;;;;;;;4.82;4.43;;;22.50;99.90;;;;;;4991967;28;20274;-37
2023/06/24 07:48:24;;;;;;;4.82;4.30;;;22.60;99.90;;;;;;5004125;28;20257;-39
2023/06/24 07:50:50;;;;;;;6.25;4.53;;;22.70;99.90;;;;;;4993876;28;20199;-38
2023/06/24 07:53:16;;;;;;;4.55;4.13;;;22.80;99.90;;;;;;5002538;28;20183;-37
2023/06/24 07:55:42;;;;;;;4.88;4.35;;;22.90;99.90;;;;;;4990371;28;20278;-35
2023/06/24 07:58:07;;;;;;;4.30;3.88;;;23.10;99.90;;;;;;4982826;28;20204;-37
2023/06/24 08:00:34;;;;;;;5.30;4.40;;;23.30;99.90;;;;;;5007999;28;20276;-40
2023/06/24 08:03:00;;;;;;;5.95;3.80;;;23.40;99.90;;;;;;5014461;28;20214;-40
2023/06/24 08:05:29;;;;;;;4.05;3.63;;;23.40;99.90;;;;;;5010108;28;20179;-38
2023/06/24 08:07:55;;;;;;;4.13;3.72;;;23.60;99.90;;;;;;4976897;28;20343;-36
2023/06/24 08:10:21;;;;;;;4.70;4.25;;;23.60;99.90;;;;;;4984719;28;20225;-39
2023/06/24 08:12:50;;;;;;;4.63;4.10;;;23.70;99.90;;;;;;5007417;28;20187;-39
2023/06/24 08:15:22;;;;;;;4.57;4.03;;;23.70;99.90;;;;;;5000191;28;20221;-39
2023/06/24 08:17:53;;;;;;;4.00;3.60;;;23.70;99.90;;;;;;4999451;28;20210;-37
2023/06/24 08:20:24;;;;;;;5.85;4.07;;;23.90;99.90;;;;;;5011811;28;20250;-40
2023/06/24 08:22:51;;;;;;;4.85;4.00;;;24.10;99.90;;;;;;4988416;28;20310;-39
2023/06/24 08:25:17;;;;;;;4.38;3.90;;;24.10;99.90;;;;;;4995336;28;20221;-39
2023/06/24 08:27:46;;;;;;;4.00;3.70;;;24.10;99.90;;;;;;5009060;28;20195;-38
2023/06/24 08:30:17;;;;;;;4.50;4.07;;;23.90;99.90;;;;;;5004316;28;20179;-38
2023/06/24 08:32:46;;;;;;;4.82;3.65;;;24.10;99.90;;;;;;4986862;28;20203;-39
2023/06/24 08:35:12;;;;;;;4.57;4.18;;;24.30;99.90;;;;;;5015784;28;20192;-38
2023/06/24 08:37:40;;;;;;;4.00;3.70;;;24.50;99.90;;;;;;4993597;28;20221;-38
2023/06/24 08:40:07;;;;;;;4.53;3.78;;;24.70;99.90;;;;;;4992953;28;20210;-35
2023/06/24 08:42:35;;;;;;;4.03;3.50;;;24.70;99.90;;;;;;5003260;28;20274;-40
2023/06/24 08:45:03;;;;;;;6.43;4.25;;;24.80;99.90;;;;;;5003708;28;20198;-40
2023/06/24 08:47:31;;;;;;;5.03;3.97;;;25.00;99.90;;;;;;4993284;28;20207;-39
2023/06/24 08:50:10;;;;;;;5.20;3.88;;;24.90;99.90;;;;;;5015081;28;20184;-42
2023/06/24 08:52:42;;;;;;;4.95;4.07;;;25.10;99.90;;;;;;5021774;28;20179;-43
2023/06/24 08:55:20;;;;;;;3.92;3.63;;;25.10;99.90;;;;;;5005912;28;20194;-40
2023/06/24 08:57:47;;;;;;;4.25;3.85;;;25.30;99.90;;;;;;5012175;28;20245;-43
2023/06/24 09:00:14;;;;;;;4.10;3.70;;;25.60;99.90;;;;;;4997186;28;20214;-41
2023/06/24 09:02:42;;;;;;;4.72;3.85;;;25.60;99.90;;;;;;4995319;28;20186;-39
2023/06/24 09:05:13;;;;;;;4.22;3.83;;;25.80;99.90;;;;;;5016222;28;20182;-42
2023/06/24 09:07:39;;;;;;;4.30;3.90;;;26.00;99.90;;;;;;5003932;28;20215;-42
2023/06/24 09:10:06;;;;;;;5.38;3.97;;;26.30;99.90;;;;;;5009167;28;20270;-39
2023/06/24 09:12:32;;;;;;;4.13;3.72;;;26.40;99.90;;;;;;4992208;28;20187;-39
2023/06/24 09:14:59;;;;;;;4.15;3.75;;;26.60;99.90;;;;;;5009198;28;20219;-39
2023/06/24 09:17:25;;;;;;;4.63;3.85;;;26.60;99.90;;;;;;5009561;28;20220;-42
2023/06/24 09:19:51;;;;;;;3.83;3.53;;;26.80;99.90;;;;;;4986540;28;20216;-40
2023/06/24 09:22:18;;;;;;;3.70;3.38;;;26.80;99.90;;;;;;4995598;28;20214;-39
2023/06/24 09:24:48;;;;;;;5.30;3.45;;;26.90;99.90;;;;;;4988547;28;20243;-38
2023/06/24 09:27:17;;;;;;;3.85;3.45;;;27.00;99.90;;;;;;4996008;28;20269;-39
2023/06/24 09:29:43;;;;;;;4.13;3.42;;;27.10;99.90;;;;;;5004809;28;20194;-39
2023/06/24 09:32:10;;;;;;;4.07;3.72;;;27.30;99.90;;;;;;4993314;28;20184;-39
2023/06/24 09:34:36;;;;;;;3.78;3.47;;;27.10;99.90;;;;;;4996267;28;20187;-39
2023/06/24 09:37:02;;;;;;;3.85;3.45;;;27.00;99.90;;;;;;4987762;28;20235;-36
2023/06/24 09:39:34;;;;;;;3.55;3.25;;;27.00;99.90;;;;;;5011903;28;20233;-41
2023/06/24 09:42:01;;;;;;;3.63;3.33;;;27.20;99.90;;;;;;5005250;28;20190;-42
2023/06/24 09:44:28;;;;;;;4.13;3.42;;;27.30;99.90;;;;;;4992795;28;20188;-38
2023/06/24 09:46:55;;;;;;;3.67;3.38;;;27.50;99.90;;;;;;4995227;28;20207;-40
2023/06/24 09:49:22;;;;;;;3.92;3.05;;;27.70;99.90;;;;;;5018621;28;20183;-40
2023/06/24 09:51:52;;;;;;;4.78;3.95;;;27.50;99.90;;;;;;5019008;28;20191;-43
2023/06/24 09:54:18;;;;;;;3.40;3.10;;;27.40;99.90;;;;;;4999534;28;20188;-37
2023/06/24 09:56:48;;;;;;;3.75;3.30;;;27.40;99.90;;;;;;4988039;28;20207;-40
2023/06/24 09:59:19;;;;;;;3.10;2.90;;;27.70;99.90;;;;;;5021146;28;20203;-40
2023/06/24 10:01:47;;;;;;;4.00;3.08;;;27.90;99.90;;;;;;4992912;28;20203;-38
2023/06/24 10:04:17;;;;;;;3.13;2.80;;;28.00;99.90;;;;;;4992679;28;20204;-40
2023/06/24 10:06:43;;;;;;;3.45;3.13;;;28.10;99.90;;;;;;4992257;28;20215;-40
2023/06/24 10:09:13;;;;;;;3.08;2.80;;;28.30;99.90;;;;;;4995540;28;20206;-36
2023/06/24 10:11:39;;;;;;;3.45;3.13;;;28.40;99.90;;;;;;4989818;28;20180;-39
2023/06/24 10:14:05;;;;;;;4.68;3.17;;;27.90;99.90;;;;;;5006159;28;20184;-40
2023/06/24 10:16:31;;;;;;;3.58;3.00;;;28.00;99.90;;;;;;5010308;28;20187;-40
2023/06/24 10:19:02;;;;;;;3.35;3.05;;;28.10;99.90;;;;;;4992901;28;20187;-40
2023/06/24 10:22:07;;;;;;;3.60;3.30;;;28.30;99.90;;;;;;4997743;28;20180;-38
2023/06/24 10:24:44;;;;;;;3.20;2.88;;;28.10;99.90;;;;;;4993940;28;20197;-42
2023/06/24 10:27:18;;;;;;;3.45;3.15;;;28.20;99.90;;;;;;4987096;28;20203;-39
2023/06/24 10:29:51;;;;;;;3.42;3.13;;;28.40;99.90;;;;;;4998601;28;20273;-40
2023/06/24 10:32:22;;;;;;;4.10;3.15;;;28.40;99.90;;;;;;5019465;28;20318;-42
2023/06/24 10:34:57;;;;;;;3.50;3.10;;;28.70;99.90;;;;;;4993463;28;20222;-42
2023/06/24 10:37:25;;;;;;;3.00;2.80;;;28.70;99.90;;;;;;4988548;28;20206;-38
2023/06/24 10:39:50;;;;;;;4.18;3.15;;;28.60;99.90;;;;;;5001494;28;20203;-40
2023/06/24 10:42:46;;;;;;;3.45;2.95;;;28.50;98.60;;;;;;4993581;28;20190;-38
2023/06/24 10:45:14;;;;;;;4.10;3.00;;;28.60;99.30;;;;;;5012289;28;20183;-36
2023/06/24 10:47:42;;;;;;;3.13;2.90;;;28.80;98.90;;;;;;4995955;28;20739;-38
2023/06/24 10:50:10;;;;;;;3.97;2.80;;;28.80;97.70;;;;;;5002968;28;20218;-40
2023/06/24 10:52:44;;;;;;;3.28;2.97;;;28.70;98.60;;;;;;5003369;28;20229;-40
2023/06/24 10:55:12;;;;;;;4.38;2.90;;;28.90;99.10;;;;;;5008038;28;20183;-39
2023/06/24 10:57:38;;;;;;;3.50;3.17;;;28.90;98.60;;;;;;4994755;28;20218;-42
2023/06/24 11:00:05;;;;;;;3.10;2.90;;;29.00;97.60;;;;;;4994701;28;20211;-36
2023/06/24 11:02:31;;;;;;;3.15;2.88;;;29.10;98.40;;;;;;4995033;28;20175;-40
2023/06/24 11:05:01;;;;;;;3.10;2.80;;;29.00;96.00;;;;;;4995118;28;20187;-42
2023/06/24 11:07:34;;;;;;;3.47;3.17;;;28.90;97.10;;;;;;4994781;28;20362;-39
2023/06/24 11:10:07;;;;;;;3.08;2.70;;;28.70;96.70;;;;;;4986650;28;20184;-38
2023/06/24 11:12:37;;;;;;;3.92;2.72;;;28.80;97.20;;;;;;4980278;28;20183;-39
2023/06/24 11:15:06;;;;;;;3.10;2.78;;;29.20;97.20;;;;;;5008291;28;20278;-40
2023/06/24 11:17:34;;;;;;;3.17;2.88;;;29.40;95.90;;;;;;4994662;28;20211;-43
2023/06/24 11:20:00;;;;;;;2.85;2.50;;;29.60;95.20;;;;;;5000603;28;20237;-38
2023/06/24 11:22:27;;;;;;;3.28;2.97;;;29.90;94.80;;;;;;5015588;28;20171;-41
2023/06/24 11:24:54;;;;;;;2.90;2.70;;;29.80;94.40;;;;;;4992252;28;20193;-41
2023/06/24 11:27:30;;;;;;;3.15;2.90;;;29.80;95.70;;;;;;4993911;28;20280;-38
2023/06/24 11:30:01;;;;;;;3.28;2.97;;;29.60;94.30;;;;;;4993037;28;20278;-40
2023/06/24 11:32:40;;;;;;;3.40;3.00;;;29.70;94.80;;;;;;4999344;28;20315;-42
2023/06/24 11:35:08;;;;;;;4.13;2.90;;;29.60;95.30;;;;;;4999068;28;20189;-39
2023/06/24 11:37:35;;;;;;;3.20;2.90;;;29.60;95.90;;;;;;4997616;28;20298;-40
2023/06/24 11:40:05;;;;;;;3.85;3.00;;;29.50;95.10;;;;;;4993920;28;20293;-42
2023/06/24 11:42:32;;;;;;;3.25;3.00;;;29.30;95.10;;;;;;5010599;28;20273;-41
2023/06/24 11:45:09;;;;;;;3.00;2.80;;;29.30;93.70;;;;;;5008860;28;20206;-43
2023/06/24 11:47:36;;;;;;;2.90;2.55;;;29.50;94.40;;;;;;4984974;28;20741;-40
2023/06/24 11:50:04;;;;;;;2.70;2.50;;;29.70;94.60;;;;;;4999868;28;20191;-40
2023/06/24 11:52:43;;;;;;;3.50;2.92;;;29.90;93.80;;;;;;4990662;28;20192;-42
2023/06/24 11:55:23;;;;;;;3.15;2.80;;;29.80;92.80;;;;;;5002496;28;20179;-39
2023/06/24 11:58:06;;;;;;;3.15;2.90;;;29.80;94.10;;;;;;5002143;28;20211;-40
2023/06/24 12:00:38;;;;;;;2.70;2.50;;;30.20;93.20;;;;;;4985913;28;20290;-40
2023/06/24 12:03:06;;;;;;;3.08;2.75;;;30.40;92.90;;;;;;4983351;28;20214;-38
2023/06/24 12:05:34;;;;;;;3.00;2.80;;;30.50;91.40;;;;;;5010159;28;20251;-42
2023/06/24 12:08:06;;;;;;;2.97;2.78;;;30.60;91.70;;;;;;5001855;28;20231;-40
2023/06/24 12:10:33;;;;;;;3.03;2.72;;;30.60;90.60;;;;;;4994204;28;20191;-42
2023/06/24 12:13:00;;;;;;;3.63;2.58;;;30.60;90.80;;;;;;4977912;28;20199;-42
2023/06/24 12:15:27;;;;;;;3.17;2.60;;;30.90;91.60;;;;;;4993392;28;20175;-42
2023/06/24 12:17:53;;;;;;;3.03;2.80;;;31.20;91.20;;;;;;4992615;28;20207;-42
2023/06/24 12:20:19;;;;;;;3.10;2.90;;;31.20;91.30;;;;;;4992482;28;20222;-40
2023/06/24 12:22:46;;;;;;;3.10;2.90;;;31.20;90.20;;;;;;4998373;28;20175;-39
2023/06/24 12:25:12;;;;;;;3.20;2.90;;;31.30;90.90;;;;;;4993004;28;20230;-39
2023/06/24 12:27:39;;;;;;;2.88;2.58;;;31.20;90.30;;;;;;4986939;28;20215;-40
2023/06/24 12:30:07;;;;;;;3.03;2.75;;;31.30;89.60;;;;;;5009109;28;20198;-42
2023/06/24 12:32:33;;;;;;;3.25;2.88;;;31.10;87.60;;;;;;5010181;28;20214;-42
2023/06/24 12:34:58;;;;;;;2.90;2.65;;;31.30;89.80;;;;;;4993653;28;20226;-40
2023/06/24 12:37:24;;;;;;;3.22;2.60;;;31.40;87.70;;;;;;5007401;28;20241;-40
2023/06/24 12:39:53;;;;;;;2.90;2.60;;;31.20;82.50;;;;;;5018162;28;20214;-40
2023/06/24 12:42:19;;;;;;;3.10;2.80;;;31.10;84.40;;;;;;4993384;28;20183;-41
2023/06/24 12:44:44;;;;;;;2.80;2.60;;;31.40;83.20;;;;;;4993792;28;20213;-43
2023/06/24 12:47:10;;;;;;;2.67;2.47;;;31.50;81.20;;;;;;4993268;28;20203;-41
2023/06/24 12:49:36;;;;;;;2.75;2.55;;;31.80;85.00;;;;;;4993235;28;20229;-40
2023/06/24 12:52:02;;;;;;;2.42;2.22;;;32.00;83.80;;;;;;4993369;28;20354;-42
2023/06/24 12:54:28;;;;;;;2.53;2.33;;;32.00;81.60;;;;;;4987555;28;20215;-40